Time;durP1;ratioP1;P1;durP2;ratioP2;P2;SDS_P1;SDS_P2;PMS_P1;PMS_P2;Temp;Humidity;BMP_temperature;BMP_pressure;BME280_temperature;BME280_humidity;BME280_pressure;Samples;Min_cycle;Max_cycle;Signal;HPM_P1;HPM_P2
2021/11/14 00:00:40;;;;;;;102.72;58.83;;;;;;;;;;5045083;28;20377;-50
2021/11/14 00:03:06;;;;;;;111.00;65.28;;;;;;;;;;5033347;28;20104;-54
2021/11/14 00:05:33;;;;;;;113.65;65.78;;;;;;;;;;5031187;28;20048;-50
2021/11/14 00:07:59;;;;;;;99.32;54.95;;;;;;;;;;5031729;28;20025;-49
2021/11/14 00:10:26;;;;;;;84.10;48.92;;;;;;;;;;5042526;28;20029;-50
2021/11/14 00:12:53;;;;;;;91.60;52.55;;;;;;;;;;5052861;28;20503;-50
2021/11/14 00:15:19;;;;;;;85.70;48.75;;;;;;;;;;5051487;28;20029;-50
2021/11/14 00:17:45;;;;;;;110.75;63.13;;;;;;;;;;5052832;28;20108;-50
2021/11/14 00:20:11;;;;;;;113.93;60.60;;;;;;;;;;5052772;28;20033;-51
2021/11/14 00:22:38;;;;;;;89.53;50.15;;;;;;;;;;5052979;28;20409;-51
2021/11/14 00:25:05;;;;;;;89.88;53.22;;;;;;;;;;5053232;28;20024;-50
2021/11/14 00:27:34;;;;;;;85.43;51.38;;;;;;;;;;5052698;28;20049;-50
2021/11/14 00:30:00;;;;;;;83.57;50.88;;;;;;;;;;5052742;28;20021;-51
2021/11/14 00:32:27;;;;;;;117.38;64.30;;;;;;;;;;5053009;28;20100;-51
2021/11/14 00:34:53;;;;;;;121.63;68.57;;;;;;;;;;5051542;28;20041;-51
2021/11/14 00:37:19;;;;;;;97.30;56.05;;;;;;;;;;5052587;28;20461;-51
2021/11/14 00:39:46;;;;;;;92.15;53.17;;;;;;;;;;5052719;28;20020;-49
2021/11/14 00:42:13;;;;;;;119.75;66.93;;;;;;;;;;5052525;28;20057;-50
2021/11/14 00:44:39;;;;;;;105.95;61.53;;;;;;;;;;5052570;28;20029;-51
2021/11/14 00:47:05;;;;;;;76.90;47.50;;;;;;;;;;5052593;28;20499;-51
2021/11/14 00:49:32;;;;;;;87.15;49.20;;;;;;;;;;5052459;28;20033;-51
2021/11/14 00:51:58;;;;;;;85.07;48.05;;;;;;;;;;5051263;28;20398;-51
2021/11/14 00:54:24;;;;;;;88.30;51.00;;;;;;;;;;5052495;28;20025;-50
2021/11/14 00:56:50;;;;;;;101.50;57.03;;;;;;;;;;5052390;28;20032;-51
2021/11/14 00:59:16;;;;;;;85.95;51.00;;;;;;;;;;5052249;28;20036;-51
2021/11/14 01:01:42;;;;;;;127.50;68.97;;;;;;;;;;5052404;28;20538;-51
2021/11/14 01:04:11;;;;;;;108.18;62.22;;;;;;;;;;5052480;28;20449;-51
2021/11/14 01:06:37;;;;;;;86.93;50.42;;;;;;;;;;5052378;28;20366;-51
2021/11/14 01:09:03;;;;;;;96.07;56.83;;;;;;;;;;5052503;28;20100;-51
2021/11/14 01:11:29;;;;;;;77.18;44.58;;;;;;;;;;5052384;28;20033;-50
2021/11/14 01:13:55;;;;;;;83.20;47.90;;;;;;;;;;5052384;28;20096;-50
2021/11/14 01:16:22;;;;;;;80.65;46.50;;;;;;;;;;5052429;28;20025;-50
2021/11/14 01:18:51;;;;;;;72.95;43.80;;;;;;;;;;5052509;28;20048;-51
2021/11/14 01:21:17;;;;;;;77.45;47.38;;;;;;;;;;5052321;28;20033;-51
2021/11/14 01:23:44;;;;;;;102.45;58.65;;;;;;;;;;5054078;28;20017;-53
2021/11/14 01:26:11;;;;;;;76.53;46.85;;;;;;;;;;5054679;28;20473;-51
2021/11/14 01:28:37;;;;;;;86.68;51.70;;;;;;;;;;5055929;28;20100;-51
2021/11/14 01:31:04;;;;;;;81.18;48.15;;;;;;;;;;5055825;28;20048;-51
2021/11/14 01:33:30;;;;;;;83.30;49.35;;;;;;;;;;5055900;28;20017;-51
2021/11/14 01:35:58;;;;;;;74.32;45.90;;;;;;;;;;5056031;28;20071;-52
2021/11/14 01:38:28;;;;;;;88.82;51.42;;;;;;;;;;5055658;28;20078;-51
2021/11/14 01:41:02;;;;;;;97.05;55.28;;;;;;;;;;5055617;28;20037;-51
2021/11/14 01:43:30;;;;;;;79.68;49.33;;;;;;;;;;5055727;28;20052;-51
2021/11/14 01:45:56;;;;;;;117.20;69.32;;;;;;;;;;5055513;28;20025;-51
2021/11/14 01:48:22;;;;;;;77.68;45.67;;;;;;;;;;5055708;28;20111;-51
2021/11/14 01:50:49;;;;;;;78.28;48.10;;;;;;;;;;5055177;28;20052;-51
2021/11/14 01:53:15;;;;;;;73.93;43.97;;;;;;;;;;5055386;28;20032;-51
2021/11/14 01:55:43;;;;;;;71.07;42.05;;;;;;;;;;5055458;28;20151;-51
2021/11/14 01:58:14;;;;;;;71.95;43.03;;;;;;;;;;5055222;28;20022;-50
2021/11/14 02:00:48;;;;;;;75.43;45.33;;;;;;;;;;5055225;28;20036;-51
2021/11/14 02:03:14;;;;;;;71.50;43.35;;;;;;;;;;5055236;28;20024;-51
2021/11/14 02:05:41;;;;;;;68.43;42.00;;;;;;;;;;5055049;28;20056;-50
2021/11/14 02:08:08;;;;;;;64.45;39.33;;;;;;;;;;5053920;28;20419;-51
2021/11/14 02:10:35;;;;;;;70.35;42.78;;;;;;;;;;5054900;28;20107;-50
2021/11/14 02:13:01;;;;;;;65.93;40.55;;;;;;;;;;5055041;28;20039;-50
2021/11/14 02:15:27;;;;;;;65.13;39.58;;;;;;;;;;5054971;28;20032;-50
2021/11/14 02:17:53;;;;;;;61.42;39.17;;;;;;;;;;5055173;28;20044;-50
2021/11/14 02:20:20;;;;;;;61.22;37.80;;;;;;;;;;5054784;28;20445;-50
2021/11/14 02:22:52;;;;;;;65.90;38.78;;;;;;;;;;5054932;28;20048;-51
2021/11/14 02:25:19;;;;;;;59.15;38.42;;;;;;;;;;5053358;28;20374;-51
2021/11/14 02:27:46;;;;;;;64.82;39.33;;;;;;;;;;5054601;28;20029;-50
2021/11/14 02:30:14;;;;;;;59.25;37.72;;;;;;;;;;5054526;28;20362;-51
2021/11/14 02:32:41;;;;;;;64.30;39.97;;;;;;;;;;5054660;28;20025;-50
2021/11/14 02:35:07;;;;;;;64.20;39.67;;;;;;;;;;5054218;28;20028;-51
2021/11/14 02:37:34;;;;;;;61.83;39.22;;;;;;;;;;5054398;28;20534;-51
2021/11/14 02:40:00;;;;;;;65.10;40.95;;;;;;;;;;5054372;28;20036;-51
2021/11/14 02:42:27;;;;;;;85.70;47.45;;;;;;;;;;5054589;28;20029;-50
2021/11/14 02:44:53;;;;;;;80.50;46.70;;;;;;;;;;5054194;28;20021;-51
2021/11/14 02:47:20;;;;;;;62.90;39.80;;;;;;;;;;5054150;28;20025;-51
2021/11/14 02:49:52;;;;;;;63.45;38.85;;;;;;;;;;5054010;28;20032;-51
2021/11/14 02:52:18;;;;;;;73.80;45.05;;;;;;;;;;5054075;28;20473;-51
2021/11/14 02:54:44;;;;;;;65.32;39.30;;;;;;;;;;5054030;28;20025;-51
2021/11/14 02:57:10;;;;;;;64.82;38.35;;;;;;;;;;5054096;28;20457;-51
2021/11/14 02:59:37;;;;;;;68.72;43.83;;;;;;;;;;5054023;28;20021;-51
2021/11/14 03:02:03;;;;;;;71.28;41.55;;;;;;;;;;5053922;28;20044;-51
2021/11/14 03:04:30;;;;;;;66.85;41.67;;;;;;;;;;5054154;28;20124;-51
2021/11/14 03:06:56;;;;;;;64.97;39.55;;;;;;;;;;5054039;28;20021;-51
2021/11/14 03:09:23;;;;;;;63.60;37.58;;;;;;;;;;5053832;28;20025;-52
2021/11/14 03:11:50;;;;;;;66.43;39.65;;;;;;;;;;5053961;28;20079;-52
2021/11/14 03:14:19;;;;;;;61.00;38.42;;;;;;;;;;5053858;28;20029;-51
2021/11/14 03:16:48;;;;;;;61.80;37.83;;;;;;;;;;5053791;28;20020;-51
2021/11/14 03:19:17;;;;;;;63.90;39.58;;;;;;;;;;5052797;28;20032;-51
2021/11/14 03:21:44;;;;;;;65.25;38.80;;;;;;;;;;5053487;28;20044;-51
2021/11/14 03:24:11;;;;;;;65.68;38.88;;;;;;;;;;5053499;28;20037;-50
2021/11/14 03:26:37;;;;;;;74.18;44.97;;;;;;;;;;5053597;28;20053;-51
2021/11/14 03:29:03;;;;;;;60.20;38.05;;;;;;;;;;5053646;28;20035;-52
2021/11/14 03:31:30;;;;;;;64.38;38.60;;;;;;;;;;5053508;28;20040;-50
2021/11/14 03:33:57;;;;;;;65.05;36.85;;;;;;;;;;5053580;28;20496;-50
2021/11/14 03:36:23;;;;;;;69.07;37.95;;;;;;;;;;5053512;28;20025;-51
2021/11/14 03:38:51;;;;;;;63.90;37.15;;;;;;;;;;5053594;28;20032;-52
2021/11/14 03:41:19;;;;;;;53.88;34.70;;;;;;;;;;5053418;28;20029;-50
2021/11/14 03:43:46;;;;;;;62.30;35.38;;;;;;;;;;5053689;28;20079;-51
2021/11/14 03:46:14;;;;;;;55.70;34.50;;;;;;;;;;5052928;28;20029;-50
2021/11/14 03:48:42;;;;;;;61.15;34.25;;;;;;;;;;5053572;28;20492;-51
2021/11/14 03:51:08;;;;;;;59.78;37.13;;;;;;;;;;5053135;28;20045;-52
2021/11/14 03:53:35;;;;;;;56.05;34.63;;;;;;;;;;5053197;28;20029;-51
2021/11/14 03:56:01;;;;;;;59.05;34.17;;;;;;;;;;5053163;28;20017;-51
2021/11/14 03:58:30;;;;;;;60.90;34.55;;;;;;;;;;5053156;28;20495;-50
2021/11/14 04:00:59;;;;;;;62.05;34.85;;;;;;;;;;5053118;28;20404;-51
2021/11/14 04:03:28;;;;;;;57.53;33.03;;;;;;;;;;5053147;28;20033;-52
2021/11/14 04:05:57;;;;;;;59.63;33.85;;;;;;;;;;5053173;28;20534;-51
2021/11/14 04:08:26;;;;;;;59.55;34.85;;;;;;;;;;5053021;28;20025;-52
2021/11/14 04:10:54;;;;;;;64.82;34.83;;;;;;;;;;5053191;28;20104;-51
2021/11/14 04:13:20;;;;;;;65.13;36.42;;;;;;;;;;5052931;28;20126;-51
2021/11/14 04:15:47;;;;;;;62.33;37.00;;;;;;;;;;5052825;28;20033;-51
2021/11/14 04:18:13;;;;;;;59.40;35.17;;;;;;;;;;5053212;28;20053;-50
2021/11/14 04:20:41;;;;;;;62.67;36.03;;;;;;;;;;5052876;28;20511;-51
2021/11/14 04:23:08;;;;;;;61.50;35.72;;;;;;;;;;5053026;28;20393;-52
2021/11/14 04:25:35;;;;;;;65.50;35.88;;;;;;;;;;5052977;28;20372;-51
2021/11/14 04:28:01;;;;;;;63.50;36.78;;;;;;;;;;5052979;28;20025;-51
2021/11/14 04:30:28;;;;;;;66.88;36.88;;;;;;;;;;5052774;28;20429;-53
2021/11/14 04:32:55;;;;;;;69.85;37.03;;;;;;;;;;5052991;28;20385;-50
2021/11/14 04:35:22;;;;;;;65.47;38.65;;;;;;;;;;5052719;28;20375;-52
2021/11/14 04:37:51;;;;;;;65.13;37.17;;;;;;;;;;5052771;28;20026;-52
2021/11/14 04:40:23;;;;;;;66.35;36.55;;;;;;;;;;5053052;28;20500;-50
2021/11/14 04:42:50;;;;;;;76.78;40.50;;;;;;;;;;5052608;28;20037;-52
2021/11/14 04:45:16;;;;;;;70.68;37.55;;;;;;;;;;5052613;28;20028;-51
2021/11/14 04:47:42;;;;;;;63.30;35.35;;;;;;;;;;5052573;28;20477;-51
2021/11/14 04:50:13;;;;;;;64.32;35.10;;;;;;;;;;5052275;28;20078;-50
2021/11/14 04:52:39;;;;;;;70.93;37.03;;;;;;;;;;5052540;28;20032;-51
2021/11/14 04:55:06;;;;;;;65.90;35.60;;;;;;;;;;5052450;28;20025;-51
2021/11/14 04:57:34;;;;;;;69.93;35.42;;;;;;;;;;5054156;28;20116;-50
2021/11/14 05:00:01;;;;;;;69.90;36.67;;;;;;;;;;5056469;28;20025;-51
2021/11/14 05:02:32;;;;;;;68.93;37.40;;;;;;;;;;5056029;28;20033;-48
2021/11/14 05:04:58;;;;;;;73.32;37.40;;;;;;;;;;5056149;28;20100;-49
2021/11/14 05:07:24;;;;;;;61.88;32.97;;;;;;;;;;5056130;28;20029;-49
2021/11/14 05:09:51;;;;;;;63.17;34.67;;;;;;;;;;5056124;28;20208;-50
2021/11/14 05:12:17;;;;;;;59.95;31.98;;;;;;;;;;5056316;28;20033;-50
2021/11/14 05:14:43;;;;;;;63.10;31.80;;;;;;;;;;5056052;28;20032;-51
2021/11/14 05:17:09;;;;;;;65.85;32.08;;;;;;;;;;5055836;28;20021;-50
2021/11/14 05:19:38;;;;;;;61.38;32.80;;;;;;;;;;5055760;28;20384;-49
2021/11/14 05:22:04;;;;;;;60.58;32.90;;;;;;;;;;5056057;28;20535;-49
2021/11/14 05:24:30;;;;;;;60.97;30.60;;;;;;;;;;5055972;28;20067;-49
2021/11/14 05:26:58;;;;;;;57.92;29.75;;;;;;;;;;5055710;28;20021;-51
2021/11/14 05:29:24;;;;;;;62.60;32.63;;;;;;;;;;5055820;28;20400;-49
2021/11/14 05:31:50;;;;;;;62.80;32.72;;;;;;;;;;5055744;28;20082;-50
2021/11/14 05:34:16;;;;;;;64.95;34.30;;;;;;;;;;5055562;28;20021;-52
2021/11/14 05:36:45;;;;;;;68.35;33.78;;;;;;;;;;5055854;28;20047;-49
2021/11/14 05:39:13;;;;;;;63.35;30.73;;;;;;;;;;5055540;28;20016;-49
2021/11/14 05:41:39;;;;;;;63.83;32.28;;;;;;;;;;5055929;28;20343;-50
2021/11/14 05:44:07;;;;;;;68.38;35.33;;;;;;;;;;5055678;28;20021;-52
2021/11/14 05:46:33;;;;;;;65.25;31.45;;;;;;;;;;5055428;28;20024;-49
2021/11/14 05:49:00;;;;;;;78.50;36.80;;;;;;;;;;5054909;28;20017;-48
2021/11/14 05:51:26;;;;;;;76.05;37.03;;;;;;;;;;5053935;28;20045;-48
2021/11/14 05:53:52;;;;;;;77.97;35.42;;;;;;;;;;5054690;28;20033;-47
2021/11/14 05:56:19;;;;;;;83.88;37.45;;;;;;;;;;5054489;28;20080;-50
2021/11/14 05:58:54;;;;;;;74.72;35.35;;;;;;;;;;5054577;28;20025;-52
2021/11/14 06:01:32;;;;;;;67.00;33.60;;;;;;;;;;5051914;28;20091;-49
2021/11/14 06:06:33;;;;;;;68.10;34.83;;;;;;;;;;5055324;28;20021;-49
2021/11/14 06:08:59;;;;;;;65.72;32.67;;;;;;;;;;5054555;28;20021;-50
2021/11/14 06:11:26;;;;;;;63.33;30.00;;;;;;;;;;5055101;28;20021;-50
2021/11/14 06:13:53;;;;;;;57.65;31.13;;;;;;;;;;5054724;28;20028;-50
2021/11/14 06:16:19;;;;;;;54.22;28.95;;;;;;;;;;5054481;28;20037;-50
2021/11/14 06:18:46;;;;;;;51.00;29.35;;;;;;;;;;5054480;28;20021;-48
2021/11/14 06:21:14;;;;;;;56.60;30.58;;;;;;;;;;5051828;28;20468;-50
2021/11/14 06:23:40;;;;;;;57.42;30.55;;;;;;;;;;5054567;28;20040;-49
2021/11/14 06:26:07;;;;;;;52.72;28.25;;;;;;;;;;5054723;28;20021;-49
2021/11/14 06:28:33;;;;;;;55.97;31.38;;;;;;;;;;5054768;28;20029;-49
2021/11/14 06:30:59;;;;;;;52.75;28.67;;;;;;;;;;5054311;28;20029;-48
2021/11/14 06:33:25;;;;;;;63.40;34.35;;;;;;;;;;5054064;28;20031;-48
2021/11/14 06:35:51;;;;;;;54.85;29.30;;;;;;;;;;5054267;28;20025;-48
2021/11/14 06:38:17;;;;;;;56.13;30.13;;;;;;;;;;5054543;28;20029;-50
2021/11/14 06:40:44;;;;;;;55.15;28.13;;;;;;;;;;5054632;28;20127;-49
2021/11/14 06:43:10;;;;;;;51.25;27.25;;;;;;;;;;5054050;28;20083;-50
2021/11/14 06:45:36;;;;;;;51.42;28.48;;;;;;;;;;5054022;28;20057;-49
2021/11/14 06:48:02;;;;;;;54.53;27.45;;;;;;;;;;5054349;28;20094;-50
2021/11/14 06:50:28;;;;;;;51.70;28.45;;;;;;;;;;5053114;28;20033;-48
2021/11/14 06:52:54;;;;;;;52.63;27.35;;;;;;;;;;5053812;28;20188;-50
2021/11/14 06:55:21;;;;;;;50.15;28.27;;;;;;;;;;5054544;28;20037;-48
2021/11/14 06:57:47;;;;;;;52.35;30.35;;;;;;;;;;5054397;28;20031;-50
2021/11/14 07:00:17;;;;;;;46.25;25.98;;;;;;;;;;5054218;28;20491;-50
2021/11/14 07:02:43;;;;;;;46.22;26.75;;;;;;;;;;5053861;28;20087;-50
2021/11/14 07:05:10;;;;;;;43.20;26.15;;;;;;;;;;5054337;28;20021;-50
2021/11/14 07:07:36;;;;;;;43.90;24.50;;;;;;;;;;5054407;28;20043;-50
2021/11/14 07:10:03;;;;;;;54.67;28.70;;;;;;;;;;5054061;28;20383;-49
2021/11/14 07:12:29;;;;;;;47.90;25.38;;;;;;;;;;5054299;28;20029;-50
2021/11/14 07:14:56;;;;;;;49.95;27.90;;;;;;;;;;5053944;28;20471;-50
2021/11/14 07:17:24;;;;;;;46.47;25.08;;;;;;;;;;5053764;28;20108;-49
2021/11/14 07:19:51;;;;;;;40.10;24.10;;;;;;;;;;5052958;28;20063;-49
2021/11/14 07:22:17;;;;;;;43.50;24.13;;;;;;;;;;5053227;28;20082;-49
2021/11/14 07:24:43;;;;;;;43.47;24.58;;;;;;;;;;5053429;28;20028;-50
2021/11/14 07:27:09;;;;;;;44.35;25.42;;;;;;;;;;5053463;28;20040;-50
2021/11/14 07:29:36;;;;;;;43.25;25.05;;;;;;;;;;5052690;28;20087;-50
2021/11/14 07:32:02;;;;;;;40.90;22.95;;;;;;;;;;5052105;28;20485;-50
2021/11/14 07:34:28;;;;;;;37.63;21.60;;;;;;;;;;5052603;28;20025;-51
2021/11/14 07:36:54;;;;;;;31.35;20.67;;;;;;;;;;5052424;28;20476;-50
2021/11/14 07:39:20;;;;;;;29.45;20.08;;;;;;;;;;5052753;28;20025;-51
2021/11/14 07:41:46;;;;;;;35.47;20.35;;;;;;;;;;5052290;28;20365;-51
2021/11/14 07:44:15;;;;;;;26.10;18.95;;;;;;;;;;5052194;28;20476;-51
2021/11/14 07:46:41;;;;;;;26.63;19.25;;;;;;;;;;5052662;28;20025;-52
2021/11/14 07:49:08;;;;;;;30.98;21.60;;;;;;;;;;5051788;28;20021;-53
2021/11/14 07:51:34;;;;;;;33.58;20.80;;;;;;;;;;5051065;28;20080;-53
2021/11/14 07:54:01;;;;;;;27.30;18.85;;;;;;;;;;5051696;28;20021;-53
2021/11/14 07:56:27;;;;;;;29.70;20.25;;;;;;;;;;5051962;28;20468;-52
2021/11/14 07:58:54;;;;;;;27.65;18.63;;;;;;;;;;5052479;28;20013;-52
2021/11/14 08:01:20;;;;;;;26.95;19.70;;;;;;;;;;5051737;28;20028;-52
2021/11/14 08:03:50;;;;;;;33.42;22.20;;;;;;;;;;5052008;28;20025;-53
2021/11/14 08:06:17;;;;;;;32.63;20.33;;;;;;;;;;5051946;28;20056;-52
2021/11/14 08:08:43;;;;;;;25.40;17.90;;;;;;;;;;5052853;28;20040;-53
2021/11/14 08:11:09;;;;;;;27.50;20.60;;;;;;;;;;5052760;28;20028;-52
2021/11/14 08:13:35;;;;;;;26.10;17.67;;;;;;;;;;5052653;28;20021;-52
2021/11/14 08:16:01;;;;;;;44.03;20.08;;;;;;;;;;5052662;28;20095;-52
2021/11/14 08:18:28;;;;;;;30.20;19.85;;;;;;;;;;5052282;28;20108;-53
2021/11/14 08:20:54;;;;;;;33.42;18.65;;;;;;;;;;5051969;28;20029;-52
2021/11/14 08:23:21;;;;;;;28.42;18.15;;;;;;;;;;5051658;28;20037;-53
2021/11/14 08:25:50;;;;;;;27.17;17.38;;;;;;;;;;5051883;28;20048;-52
2021/11/14 08:28:16;;;;;;;26.17;15.95;;;;;;;;;;5052026;28;20503;-53
2021/11/14 08:30:43;;;;;;;23.95;17.42;;;;;;;;;;5052148;28;20529;-52
2021/11/14 08:33:10;;;;;;;26.13;15.50;;;;;;;;;;5052168;28;20395;-52
2021/11/14 08:35:36;;;;;;;23.75;16.50;;;;;;;;;;5053536;28;20111;-50
2021/11/14 08:38:03;;;;;;;26.13;18.48;;;;;;;;;;5055529;28;20028;-51
2021/11/14 08:40:30;;;;;;;28.95;19.35;;;;;;;;;;5055513;28;20017;-51
2021/11/14 08:42:57;;;;;;;32.20;21.98;;;;;;;;;;5055188;28;20074;-55
2021/11/14 08:45:24;;;;;;;31.80;19.58;;;;;;;;;;5055429;28;20112;-51
2021/11/14 08:47:50;;;;;;;33.88;22.83;;;;;;;;;;5055597;28;20033;-52
2021/11/14 08:50:17;;;;;;;30.42;20.38;;;;;;;;;;5054432;28;20032;-53
2021/11/14 08:52:46;;;;;;;22.52;16.60;;;;;;;;;;5055401;28;20567;-52
2021/11/14 08:55:16;;;;;;;28.75;18.45;;;;;;;;;;5055091;28;20021;-52
2021/11/14 08:57:43;;;;;;;30.77;17.98;;;;;;;;;;5055807;28;20048;-51
2021/11/14 09:00:10;;;;;;;25.40;18.83;;;;;;;;;;5055578;28;20468;-52
2021/11/14 09:02:36;;;;;;;22.45;16.92;;;;;;;;;;5054141;28;20047;-52
2021/11/14 09:05:02;;;;;;;24.13;16.45;;;;;;;;;;5054161;28;20025;-50
2021/11/14 09:07:31;;;;;;;23.92;17.67;;;;;;;;;;5053877;28;20116;-51
2021/11/14 09:09:57;;;;;;;21.85;15.57;;;;;;;;;;5052847;28;20033;-52
2021/11/14 09:12:24;;;;;;;30.52;16.63;;;;;;;;;;5054098;28;20063;-51
2021/11/14 09:14:57;;;;;;;23.48;16.85;;;;;;;;;;5052822;28;20025;-52
2021/11/14 09:17:24;;;;;;;25.25;17.55;;;;;;;;;;5054573;28;20488;-52
2021/11/14 09:19:51;;;;;;;21.75;15.32;;;;;;;;;;5054617;28;20040;-51
2021/11/14 09:22:17;;;;;;;25.80;16.33;;;;;;;;;;5054662;28;20033;-52
2021/11/14 09:24:43;;;;;;;26.15;17.08;;;;;;;;;;5054767;28;20017;-49
2021/11/14 09:27:09;;;;;;;24.33;17.42;;;;;;;;;;5054239;28;20017;-49
2021/11/14 09:29:35;;;;;;;23.45;16.65;;;;;;;;;;5054469;28;20029;-49
2021/11/14 09:32:02;;;;;;;20.13;16.88;;;;;;;;;;5054433;28;20033;-47
2021/11/14 09:34:28;;;;;;;22.90;16.67;;;;;;;;;;5038906;28;20036;-47
2021/11/14 09:36:55;;;;;;;23.90;16.52;;;;;;;;;;5031052;28;20029;-47
2021/11/14 09:39:23;;;;;;;31.35;21.38;;;;;;;;;;5029572;28;20036;-48
2021/11/14 09:41:53;;;;;;;27.15;17.55;;;;;;;;;;5030639;28;20025;-48
2021/11/14 09:44:20;;;;;;;25.08;16.23;;;;;;;;;;5028104;28;20124;-49
2021/11/14 09:46:50;;;;;;;32.70;19.77;;;;;;;;;;5031160;28;20323;-48
2021/11/14 09:49:18;;;;;;;25.55;15.55;;;;;;;;;;5032017;28;20403;-46
2021/11/14 09:51:44;;;;;;;27.25;16.92;;;;;;;;;;5030833;28;20049;-46
2021/11/14 09:54:10;;;;;;;25.90;17.58;;;;;;;;;;5030572;28;20690;-47
2021/11/14 09:56:37;;;;;;;33.53;20.80;;;;;;;;;;5027205;28;20025;-47
2021/11/14 09:59:03;;;;;;;30.27;19.10;;;;;;;;;;5030497;28;20252;-49
2021/11/14 10:01:32;;;;;;;30.60;17.38;;;;;;;;;;5029642;28;20025;-47
2021/11/14 10:03:58;;;;;;;29.90;17.75;;;;;;;;;;5012942;28;20033;-48
2021/11/14 10:06:26;;;;;;;27.45;17.42;;;;;;;;;;5030744;28;20052;-48
2021/11/14 10:08:52;;;;;;;26.65;18.23;;;;;;;;;;5029962;28;20635;-47
2021/11/14 10:11:18;;;;;;;34.92;20.48;;;;;;;;;;5029813;28;20022;-47
2021/11/14 10:13:48;;;;;;;31.48;17.45;;;;;;;;;;5032102;28;20515;-47
2021/11/14 10:16:19;;;;;;;29.92;18.33;;;;;;;;;;5031321;28;20098;-47
2021/11/14 10:18:56;;;;;;;24.23;16.02;;;;;;;;;;5032771;28;20140;-47
2021/11/14 10:21:23;;;;;;;31.75;18.60;;;;;;;;;;5029550;28;20029;-47
2021/11/14 10:23:50;;;;;;;32.22;16.45;;;;;;;;;;5029234;28;20508;-48
2021/11/14 10:26:17;;;;;;;25.45;13.95;;;;;;;;;;5024027;28;20389;-49
2021/11/14 10:28:47;;;;;;;31.42;19.35;;;;;;;;;;5024252;28;20026;-48
2021/11/14 10:31:15;;;;;;;31.40;18.83;;;;;;;;;;5052620;28;20021;-48
2021/11/14 10:33:42;;;;;;;24.05;16.13;;;;;;;;;;5054424;28;20028;-48
2021/11/14 10:36:08;;;;;;;27.52;16.45;;;;;;;;;;5054614;28;20033;-49
2021/11/14 10:38:37;;;;;;;26.13;16.98;;;;;;;;;;5054675;28;20052;-49
2021/11/14 10:41:06;;;;;;;26.50;16.38;;;;;;;;;;5054493;28;20100;-49
2021/11/14 10:43:37;;;;;;;25.48;15.65;;;;;;;;;;5054403;28;20040;-48
2021/11/14 10:46:03;;;;;;;26.63;16.52;;;;;;;;;;5054447;28;20499;-48
2021/11/14 10:48:31;;;;;;;24.48;16.48;;;;;;;;;;5054349;28;20033;-48
2021/11/14 10:50:59;;;;;;;23.00;15.35;;;;;;;;;;5054088;28;20106;-49
2021/11/14 10:53:32;;;;;;;26.63;17.25;;;;;;;;;;5054502;28;20025;-48
2021/11/14 10:56:08;;;;;;;25.63;14.85;;;;;;;;;;5054030;28;20396;-48
2021/11/14 10:58:35;;;;;;;30.75;16.88;;;;;;;;;;5054239;28;20021;-48
2021/11/14 11:01:03;;;;;;;30.83;16.33;;;;;;;;;;5052804;28;20484;-49
2021/11/14 11:03:40;;;;;;;26.52;16.92;;;;;;;;;;5054276;28;20495;-48
2021/11/14 11:06:11;;;;;;;22.33;15.23;;;;;;;;;;5054035;28;20407;-48
2021/11/14 11:08:37;;;;;;;24.83;14.55;;;;;;;;;;5054185;28;20043;-48
2021/11/14 11:11:05;;;;;;;23.90;15.25;;;;;;;;;;5053870;28;20070;-48
2021/11/14 11:13:34;;;;;;;26.70;15.48;;;;;;;;;;5053907;28;20118;-48
2021/11/14 11:16:05;;;;;;;27.35;16.80;;;;;;;;;;5053798;28;20151;-48
2021/11/14 11:18:31;;;;;;;28.52;16.40;;;;;;;;;;5053740;28;20038;-48
2021/11/14 11:21:02;;;;;;;27.60;15.35;;;;;;;;;;5053929;28;20029;-49
2021/11/14 11:23:28;;;;;;;24.88;15.75;;;;;;;;;;5053591;28;20453;-48
2021/11/14 11:26:02;;;;;;;24.80;15.82;;;;;;;;;;5053421;28;20112;-49
2021/11/14 11:28:31;;;;;;;23.73;15.73;;;;;;;;;;5053749;28;20024;-49
2021/11/14 11:31:34;;;;;;;31.70;16.58;;;;;;;;;;5053923;28;20032;-49
2021/11/14 11:34:03;;;;;;;24.58;16.23;;;;;;;;;;5053380;28;20021;-48
2021/11/14 11:36:29;;;;;;;27.98;16.85;;;;;;;;;;5053396;28;20023;-49
2021/11/14 11:38:55;;;;;;;32.85;18.33;;;;;;;;;;5053442;28;20024;-48
2021/11/14 11:41:23;;;;;;;27.73;17.17;;;;;;;;;;5053366;28;20036;-48
2021/11/14 11:43:51;;;;;;;33.08;19.23;;;;;;;;;;5053281;28;20028;-49
2021/11/14 11:46:21;;;;;;;27.90;17.20;;;;;;;;;;5053295;28;20036;-48
2021/11/14 11:48:58;;;;;;;27.65;16.02;;;;;;;;;;5053408;28;20033;-50
2021/11/14 11:51:34;;;;;;;26.15;16.33;;;;;;;;;;5053019;28;20049;-47
2021/11/14 11:54:04;;;;;;;25.77;16.10;;;;;;;;;;5053555;28;20064;-48
2021/11/14 11:56:52;;;;;;;30.70;17.58;;;;;;;;;;5053543;28;20032;-47
2021/11/14 11:59:25;;;;;;;26.13;15.70;;;;;;;;;;5053049;28;20142;-47
2021/11/14 12:02:02;;;;;;;27.15;16.35;;;;;;;;;;5053044;28;20028;-48
2021/11/14 12:04:28;;;;;;;27.27;17.05;;;;;;;;;;5053131;28;20435;-49
2021/11/14 12:07:05;;;;;;;28.15;17.50;;;;;;;;;;5052537;28;20469;-48
2021/11/14 12:09:37;;;;;;;31.55;17.30;;;;;;;;;;5053012;28;20036;-48
2021/11/14 12:12:03;;;;;;;26.15;16.60;;;;;;;;;;5053305;28;20075;-49
2021/11/14 12:14:31;;;;;;;26.63;16.75;;;;;;;;;;5053037;28;20025;-49
2021/11/14 12:17:07;;;;;;;27.90;17.73;;;;;;;;;;5053074;28;20029;-49
2021/11/14 12:19:37;;;;;;;28.42;17.48;;;;;;;;;;5052730;28;20476;-49
2021/11/14 12:22:03;;;;;;;32.78;17.48;;;;;;;;;;5052644;28;20401;-48
2021/11/14 12:24:32;;;;;;;31.38;16.83;;;;;;;;;;5053105;28;20037;-49
2021/11/14 12:26:59;;;;;;;28.08;16.25;;;;;;;;;;5052924;28;20465;-48
2021/11/14 12:29:36;;;;;;;29.20;16.80;;;;;;;;;;5052816;28;20086;-48
2021/11/14 12:32:16;;;;;;;31.33;18.55;;;;;;;;;;5052787;28;20036;-49
2021/11/14 12:34:43;;;;;;;29.00;16.93;;;;;;;;;;5052596;28;20078;-47
2021/11/14 12:37:11;;;;;;;28.70;16.30;;;;;;;;;;5052914;28;20472;-49
2021/11/14 12:39:38;;;;;;;26.17;16.25;;;;;;;;;;5052637;28;20352;-48
2021/11/14 12:42:06;;;;;;;27.52;17.10;;;;;;;;;;5052443;28;20028;-49
2021/11/14 12:44:36;;;;;;;30.65;18.42;;;;;;;;;;5052834;28;20032;-47
2021/11/14 12:47:14;;;;;;;43.38;24.00;;;;;;;;;;5052726;28;20021;-49
2021/11/14 12:49:40;;;;;;;41.40;24.08;;;;;;;;;;5052440;28;20032;-48
2021/11/14 12:52:07;;;;;;;40.85;24.40;;;;;;;;;;5052488;28;20195;-48
2021/11/14 12:54:34;;;;;;;39.28;24.70;;;;;;;;;;5052431;28;20017;-47
2021/11/14 12:57:15;;;;;;;45.15;23.15;;;;;;;;;;5052529;28;20029;-48
2021/11/14 12:59:41;;;;;;;;;;;;;;;;;;5052976;28;20103;-48
2021/11/14 13:02:16;;;;;;;31.88;17.80;;;;;;;;;;5052363;28;19912;-48
2021/11/14 13:04:42;;;;;;;26.15;16.23;;;;;;;;;;5050966;28;20396;-48
2021/11/14 13:07:22;;;;;;;24.15;14.75;;;;;;;;;;5052549;28;20033;-48
2021/11/14 13:09:48;;;;;;;27.10;14.45;;;;;;;;;;5052252;28;20029;-49
2021/11/14 13:12:21;;;;;;;22.98;14.80;;;;;;;;;;5052406;28;20025;-49
2021/11/14 13:14:55;;;;;;;25.55;14.88;;;;;;;;;;5052567;28;20025;-50
2021/11/14 13:17:22;;;;;;;23.33;13.82;;;;;;;;;;5052522;28;20453;-50
2021/11/14 13:19:49;;;;;;;25.88;14.60;;;;;;;;;;5055741;28;20129;-49
2021/11/14 13:22:17;;;;;;;22.75;14.68;;;;;;;;;;5055757;28;20029;-48
2021/11/14 13:24:48;;;;;;;31.30;16.13;;;;;;;;;;5056017;28;20040;-49
2021/11/14 13:27:15;;;;;;;28.40;16.03;;;;;;;;;;5055880;28;20104;-49
2021/11/14 13:29:48;;;;;;;23.83;13.68;;;;;;;;;;5056072;28;20048;-48
2021/11/14 13:32:15;;;;;;;23.85;13.15;;;;;;;;;;5055890;28;20138;-49
2021/11/14 13:34:42;;;;;;;26.90;15.57;;;;;;;;;;5055599;28;20108;-47
2021/11/14 13:37:11;;;;;;;31.30;16.58;;;;;;;;;;5055626;28;20035;-48
2021/11/14 13:39:37;;;;;;;28.30;14.40;;;;;;;;;;5055555;28;20021;-49
2021/11/14 13:42:16;;;;;;;29.08;17.20;;;;;;;;;;5054303;28;20037;-48
2021/11/14 13:44:47;;;;;;;23.63;14.73;;;;;;;;;;5034108;28;20044;-48
2021/11/14 13:47:15;;;;;;;28.52;16.52;;;;;;;;;;5027124;28;20098;-47
2021/11/14 13:49:41;;;;;;;24.40;15.13;;;;;;;;;;5024682;28;20017;-48
2021/11/14 13:52:13;;;;;;;32.50;18.98;;;;;;;;;;5024685;28;20753;-48
2021/11/14 13:54:55;;;;;;;39.38;24.48;;;;;;;;;;5024537;28;20096;-48
2021/11/14 13:57:24;;;;;;;38.05;23.23;;;;;;;;;;5024621;28;20025;-48
2021/11/14 13:59:51;;;;;;;68.50;35.50;;;;;;;;;;5024341;28;20033;-48
2021/11/14 14:02:23;;;;;;;75.38;25.42;;;;;;;;;;5024753;28;20516;-48
2021/11/14 14:04:53;;;;;;;37.88;18.10;;;;;;;;;;5024876;28;20037;-48
2021/11/14 14:07:22;;;;;;;153.05;52.85;;;;;;;;;;5025748;28;20017;-49
2021/11/14 14:09:53;;;;;;;157.82;52.80;;;;;;;;;;5025871;28;20036;-48
2021/11/14 14:12:19;;;;;;;234.77;95.18;;;;;;;;;;5024670;28;20017;-48
2021/11/14 14:14:47;;;;;;;121.70;49.35;;;;;;;;;;5024538;28;20025;-49
2021/11/14 14:17:13;;;;;;;111.30;47.08;;;;;;;;;;5024466;28;20061;-49
2021/11/14 14:19:39;;;;;;;48.00;21.95;;;;;;;;;;5024976;28;20032;-47
2021/11/14 14:22:05;;;;;;;72.65;32.60;;;;;;;;;;5024462;28;20402;-48